Saint Anne, IL (60964)

6:04 AM CDT on August 25, 2016 (GMT -0500)
rural Saint Anne | | Change Station

Elev 689 ft 41.06 °N, 87.75 °W | Updated 2 minutes ago

Clear
Clear
69.4 °F
Feels Like 69.4 °F
N
1.1
Wind Variable Wind from WSW

Today
High -- | Low -- °F
--% Chance of Precip.
Yesterday
High -- | Low -- °F
Precip. -- in
Pressure 30.00 in
Visibility 10.0 miles
Clouds Clear
Dew Point 68 °F
Humidity 96%
Rainfall 0.29 in
Snow Depth Not available.
6:11 AM 7:33 PM
Waning Gibbous, 47% visible
METAR KIKK 251055Z AUTO 27003KT 10SM CLR 21/21 A3000 RMK AO2 T02100206
Pressure 30.00 in
Visibility 10.0 miles
Clouds Clear
Dew Point 68 °F
Humidity 96%
Rainfall 0.29 in
Snow Depth Not available.
6:11 AM 7:33 PM
Waning Gibbous, 47% visible
METAR KIKK 251055Z AUTO 27003KT 10SM CLR 21/21 A3000 RMK AO2 T02100206

10-Day Weather Forecast

Almanac

Astronomy

Aug. 25, 2016 Rise Set
Actual Time
Civil Twilight
Nautical Twilight
Astronomical Twilight
Moon
Length of Visible Light
Length of Day
Tomorrow will be .
, % of the Moon is Illuminated

Today's Extremes

State Highs State Lows

Community

WunderPhotos

Upload Photos

1,934,822 photos uploaded!

WunderBlog® & News

Nearby

Air Quality

  Air Quality AQ Index Pollutant
Not available.

Snow Depth

Station Depth Elevation

Earthquake Activity

City Distance Mag. Time & Date
Minimum magnitude displayed is 2.5.

Coastal Water Temperatures

Place Temperature

Stations

Nearby Weather Stations

Station Location Temp. Windchill Dew Point Humidity Wind Precip. Elev Updated Type
                   

Watches & Warnings

There are currently no watches in effect.